Time;durP1;ratioP1;P1;durP2;ratioP2;P2;SDS_P1;SDS_P2;PMS_P1;PMS_P2;Temp;Humidity;BMP_temperature;BMP_pressure;BME280_temperature;BME280_humidity;BME280_pressure;Samples;Min_cycle;Max_cycle;Signal;HPM_P1;HPM_P2
2023/02/12 00:07:41;;;;;;;44.5;29.4;;;;;;;4;92;99980;;;;
2023/02/12 00:18:41;;;;;;;44.5;29.4;;;;;;;4;92;99990;;;;
2023/02/12 00:29:41;;;;;;;44.5;29.4;;;;;;;4;92;100000;;;;
2023/02/12 00:40:41;;;;;;;39.5;27.9;;;;;;;3.9;92.1;99990;;;;
2023/02/12 00:50:41;;;;;;;39.5;27.9;;;;;;;4;92.2;99990;;;;
2023/02/12 01:01:41;;;;;;;39.5;27.9;;;;;;;4;92.2;100000;;;;
2023/02/12 01:12:41;;;;;;;33.7;23.1;;;;;;;4.1;92.2;100010;;;;
2023/02/12 01:23:41;;;;;;;33.7;23.1;;;;;;;4.1;92.1;100010;;;;
2023/02/12 01:33:41;;;;;;;26.3;21.6;;;;;;;4.2;92;100030;;;;
2023/02/12 01:44:41;;;;;;;26.3;21.6;;;;;;;4.2;91.8;100030;;;;
2023/02/12 01:55:41;;;;;;;26.3;21.6;;;;;;;4.2;91.9;100050;;;;
2023/02/12 02:06:41;;;;;;;27.2;19.5;;;;;;;4.2;91.9;100050;;;;
2023/02/12 02:16:41;;;;;;;27.2;19.5;;;;;;;4.3;91.9;100060;;;;
2023/02/12 02:26:41;;;;;;;27.2;19.5;;;;;;;4.2;91.8;100080;;;;
2023/02/12 02:36:41;;;;;;;35.8;23.8;;;;;;;4.2;91.8;100110;;;;
2023/02/12 02:46:41;;;;;;;35.8;23.8;;;;;;;4.2;92;100120;;;;
2023/02/12 02:56:41;;;;;;;35.8;23.8;;;;;;;4.2;92;100120;;;;
2023/02/12 03:06:43;;;;;;;25.8;19.7;;;;;;;4.3;91.9;100140;;;;
2023/02/12 03:16:41;;;;;;;25.8;19.7;;;;;;;4.2;92;100150;;;;
2023/02/12 03:26:41;;;;;;;25.8;19.7;;;;;;;4.3;91.9;100170;;;;
2023/02/12 03:37:41;;;;;;;24.9;17.7;;;;;;;4.3;91.8;100180;;;;
2023/02/12 03:47:41;;;;;;;24.9;17.7;;;;;;;4.3;91.7;100200;;;;
2023/02/12 03:58:40;;;;;;;24.9;17.7;;;;;;;4.2;91.6;100220;;;;
2023/02/12 04:08:41;;;;;;;28.4;21.2;;;;;;;4.2;91.4;100230;;;;
2023/02/12 04:18:41;;;;;;;28.4;21.2;;;;;;;4.3;91.4;100260;;;;
2023/02/12 04:29:41;;;;;;;28.4;21.2;;;;;;;4.3;91.3;100270;;;;
2023/02/12 04:40:41;;;;;;;26.7;19.7;;;;;;;4.3;91.1;100270;;;;
2023/02/12 04:51:40;;;;;;;26.7;19.7;;;;;;;4.3;90.9;100300;;;;
2023/02/12 05:01:41;;;;;;;26.7;19.7;;;;;;;4.3;90.6;100310;;;;
2023/02/12 05:11:41;;;;;;;27.5;18.8;;;;;;;4.3;90.4;100340;;;;
2023/02/12 05:22:40;;;;;;;27.5;18.8;;;;;;;4.2;90.4;100360;;;;
2023/02/12 05:32:41;;;;;;;30.6;21.1;;;;;;;4.1;90.5;100370;;;;
2023/02/12 05:42:40;;;;;;;30.6;21.1;;;;;;;4.2;90.4;100390;;;;
2023/02/12 05:53:41;;;;;;;30.6;21.1;;;;;;;4.2;89.9;100410;;;;
2023/02/12 06:04:40;;;;;;;19.9;13.2;;;;;;;4.1;89.4;100430;;;;
2023/02/12 06:14:40;;;;;;;19.9;13.2;;;;;;;4;89;100450;;;;
2023/02/12 06:25:40;;;;;;;9.2;5.4;;;;;;;3.8;85.9;100470;;;;
2023/02/12 06:36:40;;;;;;;9.2;5.4;;;;;;;3.6;85.3;100480;;;;
2023/02/12 06:46:40;;;;;;;9.2;5.4;;;;;;;3.3;85.1;100490;;;;
2023/02/12 06:56:42;;;;;;;8.3;4.4;;;;;;;3.2;85.2;100500;;;;
2023/02/12 07:06:40;;;;;;;8.3;4.4;;;;;;;3;85.5;100510;;;;
2023/02/12 07:16:40;;;;;;;8.3;4.4;;;;;;;2.9;85.9;100520;;;;
2023/02/12 07:27:40;;;;;;;9.8;4.7;;;;;;;2.8;86.4;100540;;;;
2023/02/12 07:38:41;;;;;;;9.8;4.7;;;;;;;2.8;87;100550;;;;
2023/02/12 07:48:40;;;;;;;9.8;4.7;;;;;;;2.7;85.5;100560;;;;
2023/02/12 07:58:40;;;;;;;12.1;4.1;;;;;;;2.9;85.9;100570;;;;
2023/02/12 08:09:40;;;;;;;12.1;4.1;;;;;;;2.8;85.9;100580;;;;
2023/02/12 08:19:40;;;;;;;12.1;4.1;;;;;;;3.1;85.3;100590;;;;
2023/02/12 08:29:41;;;;;;;11.1;5.5;;;;;;;2.9;83.1;100610;;;;
2023/02/12 08:40:40;;;;;;;11.1;5.5;;;;;;;3.2;81.7;100610;;;;
2023/02/12 08:51:40;;;;;;;11.1;5.5;;;;;;;3.6;79;100620;;;;
2023/02/12 09:01:40;;;;;;;9.9;4.7;;;;;;;3.8;77.3;100630;;;;
2023/02/12 09:12:40;;;;;;;9.9;4.7;;;;;;;3.8;75.8;100650;;;;
2023/02/12 09:22:40;;;;;;;6.3;3.3;;;;;;;3.6;76.4;100670;;;;
2023/02/12 09:33:40;;;;;;;6.3;3.3;;;;;;;3.7;75.5;100680;;;;
2023/02/12 09:43:40;;;;;;;6.3;3.3;;;;;;;4;73.9;100670;;;;
2023/02/12 09:53:40;;;;;;;4.8;2.9;;;;;;;4;73.7;100680;;;;
2023/02/12 10:04:40;;;;;;;4.8;2.9;;;;;;;4.4;72.4;100690;;;;
2023/02/12 10:14:40;;;;;;;4.8;2.9;;;;;;;4.6;72;100700;;;;
2023/02/12 10:25:40;;;;;;;7.4;3.7;;;;;;;4.4;70.8;100700;;;;
2023/02/12 10:35:40;;;;;;;7.4;3.7;;;;;;;5;70.7;100710;;;;
2023/02/12 10:45:40;;;;;;;7.4;3.7;;;;;;;5.2;69.2;100710;;;;
2023/02/12 10:55:40;;;;;;;6.5;3.8;;;;;;;5.4;69.2;100710;;;;
2023/02/12 11:06:41;;;;;;;6.5;3.8;;;;;;;5.2;69.1;100700;;;;
2023/02/12 11:16:40;;;;;;;6.5;3.8;;;;;;;5.7;68;100700;;;;
2023/02/12 11:26:41;;;;;;;7.3;4.5;;;;;;;5.6;66.8;100700;;;;
2023/02/12 11:37:40;;;;;;;7.3;4.5;;;;;;;5.7;67.6;100700;;;;
2023/02/12 11:47:40;;;;;;;7.3;4.5;;;;;;;5.8;67.7;100700;;;;
2023/02/12 11:57:40;;;;;;;9.9;5.5;;;;;;;5.7;68.2;100700;;;;
2023/02/12 12:08:40;;;;;;;9.9;5.5;;;;;;;5.5;69.4;100690;;;;
2023/02/12 12:19:56;;;;;;;9.9;5.5;;;;;;;6;68.4;100680;;;;
2023/02/12 12:29:40;;;;;;;8.9;5.9;;;;;;;6.5;67.3;100670;;;;
2023/02/12 12:39:40;;;;;;;8.9;5.9;;;;;;;6.3;66.6;100660;;;;
2023/02/12 12:50:42;;;;;;;8.9;5.9;;;;;;;6.4;65.4;100660;;;;
2023/02/12 13:00:40;;;;;;;11.7;7.5;;;;;;;6.5;65.2;100670;;;;
2023/02/12 13:10:41;;;;;;;11.7;7.5;;;;;;;6.2;66.5;100660;;;;
2023/02/12 13:20:41;;;;;;;11.7;7.5;;;;;;;6.5;66;100670;;;;
2023/02/12 13:31:40;;;;;;;11.6;7.6;;;;;;;6.6;65.9;100690;;;;
2023/02/12 13:41:40;;;;;;;11.6;7.6;;;;;;;6.4;64.3;100690;;;;
2023/02/12 13:51:40;;;;;;;13.4;9.5;;;;;;;6.4;64.2;100690;;;;
2023/02/12 14:01:41;;;;;;;13.4;9.5;;;;;;;5.9;63.8;100680;;;;
2023/02/12 14:12:41;;;;;;;13.4;9.5;;;;;;;6;64.5;100680;;;;
2023/02/12 14:22:40;;;;;;;12.4;8.4;;;;;;;5.8;64.6;100700;;;;
2023/02/12 14:33:40;;;;;;;12.4;8.4;;;;;;;5.4;65.5;100700;;;;
2023/02/12 14:43:59;;;;;;;12.4;8.4;;;;;;;5.1;66.1;100690;;;;
2023/02/12 14:53:40;;;;;;;9.3;7;;;;;;;4.9;67.4;100700;;;;
2023/02/12 15:03:41;;;;;;;9.3;7;;;;;;;4.7;71.3;100710;;;;
2023/02/12 15:13:40;;;;;;;9.3;7;;;;;;;4.6;73.6;100710;;;;
2023/02/12 15:24:45;;;;;;;16.1;9.6;;;;;;;4.3;74.6;100720;;;;
2023/02/12 15:34:41;;;;;;;16.1;9.6;;;;;;;4.1;75.4;100730;;;;
2023/02/12 15:44:40;;;;;;;16.1;9.6;;;;;;;3.7;76.5;100740;;;;
2023/02/12 15:54:40;;;;;;;12.8;8.2;;;;;;;3.4;76.9;100760;;;;
2023/02/12 16:05:40;;;;;;;12.8;8.2;;;;;;;3.1;77.1;100760;;;;
2023/02/12 16:15:40;;;;;;;12.8;8.2;;;;;;;2.7;77.7;100760;;;;
2023/02/12 16:26:41;;;;;;;14.4;7.4;;;;;;;2.4;78.4;100770;;;;
2023/02/12 16:37:40;;;;;;;14.4;7.4;;;;;;;2.1;79.2;100800;;;;
2023/02/12 16:48:40;;;;;;;14.4;7.4;;;;;;;1.9;79.9;100820;;;;
2023/02/12 16:59:43;;;;;;;14.9;7;;;;;;;1.8;80.4;100820;;;;
2023/02/12 17:10:40;;;;;;;14.9;7;;;;;;;1.7;80.2;100800;;;;
2023/02/12 17:20:40;;;;;;;16.1;9.5;;;;;;;1.5;80.2;100810;;;;
2023/02/12 17:31:40;;;;;;;16.1;9.5;;;;;;;1.3;80.8;100810;;;;
2023/02/12 17:41:40;;;;;;;16.1;9.5;;;;;;;1.1;81;100820;;;;
2023/02/12 17:51:41;;;;;;;15.6;9.3;;;;;;;1.1;82.5;100800;;;;
2023/02/12 18:02:40;;;;;;;15.6;9.3;;;;;;;1.1;82.7;100800;;;;
2023/02/12 18:12:40;;;;;;;15.6;9.3;;;;;;;1.1;83.2;100790;;;;
2023/02/12 18:23:40;;;;;;;17.8;10.3;;;;;;;1.2;83.8;100800;;;;
2023/02/12 18:33:40;;;;;;;17.8;10.3;;;;;;;1.2;83.7;100790;;;;
2023/02/12 18:44:41;;;;;;;17.8;10.3;;;;;;;1.4;84.1;100800;;;;
2023/02/12 18:55:40;;;;;;;17.3;10.5;;;;;;;1.6;83.8;100790;;;;
2023/02/12 19:05:40;;;;;;;17.3;10.5;;;;;;;1.7;83.4;100790;;;;
2023/02/12 19:15:40;;;;;;;17.3;10.5;;;;;;;1.8;83.3;100780;;;;
2023/02/12 19:26:40;;;;;;;21;13.6;;;;;;;1.9;83.4;100780;;;;
2023/02/12 19:37:40;;;;;;;21;13.6;;;;;;;1.8;82.9;100770;;;;
2023/02/12 19:47:40;;;;;;;21;13.6;;;;;;;1.7;83;100770;;;;
2023/02/12 19:58:40;;;;;;;28.9;17.8;;;;;;;1.8;83.5;100770;;;;
2023/02/12 20:09:40;;;;;;;28.9;17.8;;;;;;;2;83.3;100770;;;;
2023/02/12 20:20:40;;;;;;;21;11.2;;;;;;;2.2;82.8;100780;;;;
2023/02/12 20:31:41;;;;;;;21;11.2;;;;;;;2.4;82.4;100780;;;;
2023/02/12 20:41:40;;;;;;;21;11.2;;;;;;;2.4;81.9;100780;;;;
2023/02/12 20:51:40;;;;;;;28;17.1;;;;;;;2.3;81.1;100780;;;;
2023/02/12 21:02:40;;;;;;;28;17.1;;;;;;;1.9;80.6;100770;;;;
2023/02/12 21:12:40;;;;;;;28;17.1;;;;;;;1.6;81;100780;;;;
2023/02/12 21:22:40;;;;;;;38.9;24.1;;;;;;;1.5;81.3;100770;;;;
2023/02/12 21:33:40;;;;;;;38.9;24.1;;;;;;;1.4;81.9;100780;;;;
2023/02/12 21:43:40;;;;;;;38.9;24.1;;;;;;;1.5;82.1;100780;;;;
2023/02/12 21:54:40;;;;;;;92.2;55.2;;;;;;;1.6;82.4;100790;;;;
2023/02/12 22:05:40;;;;;;;92.2;55.2;;;;;;;1.7;82.4;100800;;;;
2023/02/12 22:15:40;;;;;;;92.2;55.2;;;;;;;1.8;82.4;100810;;;;
2023/02/12 22:26:40;;;;;;;81.6;45.9;;;;;;;1.9;82.5;100810;;;;
2023/02/12 22:37:40;;;;;;;81.6;45.9;;;;;;;2;82.5;100810;;;;
2023/02/12 22:47:40;;;;;;;81.6;45.9;;;;;;;2.1;82.3;100800;;;;
2023/02/12 22:58:40;;;;;;;84.7;46.3;;;;;;;2.1;82.2;100810;;;;
2023/02/12 23:08:40;;;;;;;84.7;46.3;;;;;;;2.1;82.1;100800;;;;
2023/02/12 23:18:40;;;;;;;84.7;46.3;;;;;;;2.1;82.2;100800;;;;
2023/02/12 23:29:40;;;;;;;51.1;33.7;;;;;;;2.2;82.3;100790;;;;
2023/02/12 23:40:40;;;;;;;51.1;33.7;;;;;;;2.1;82.2;100780;;;;
2023/02/12 23:51:40;;;;;;;43.7;30.3;;;;;;;2;82.2;100780;;;;
